createdAt,value
2023-05-12T00:01:42.162Z,20.38
2023-05-12T00:04:09.471Z,20.25
2023-05-12T00:06:36.850Z,20.38
2023-05-12T00:09:04.179Z,20.42
2023-05-12T00:11:31.387Z,20.31
2023-05-12T00:13:58.502Z,20.31
2023-05-12T00:16:25.721Z,20.43
2023-05-12T00:18:53.119Z,20.41
2023-05-12T00:21:20.394Z,20.41
2023-05-12T00:23:47.553Z,20.35
2023-05-12T00:26:14.717Z,20.37
2023-05-12T00:28:44.200Z,20.35
2023-05-12T00:31:11.381Z,20.33
2023-05-12T00:33:38.399Z,20.24
2023-05-12T00:36:06.152Z,20.29
2023-05-12T00:38:34.634Z,20.13
2023-05-12T00:41:01.814Z,20.33
2023-05-12T00:43:28.875Z,20.27
2023-05-12T00:45:57.081Z,20.31
2023-05-12T00:48:24.713Z,20.09
2023-05-12T00:50:52.148Z,20.21
2023-05-12T00:53:19.371Z,20.19
2023-05-12T00:55:46.800Z,20.26
2023-05-12T00:58:14.660Z,20.32
2023-05-12T01:00:41.871Z,20.35
2023-05-12T01:03:09.577Z,20.36
2023-05-12T01:05:50.547Z,20.47
2023-05-12T01:08:18.017Z,20.47
2023-05-12T01:10:46.830Z,20.34
2023-05-12T01:13:16.545Z,20.30
2023-05-12T01:15:47.755Z,20.29
2023-05-12T01:18:16.433Z,20.25
2023-05-12T01:20:44.888Z,20.14
2023-05-12T01:23:17.288Z,20.23
2023-05-12T01:25:49.510Z,20.22
2023-05-12T01:28:17.628Z,20.20
2023-05-12T01:30:45.586Z,20.04
2023-05-12T01:33:13.720Z,20.08
2023-05-12T01:35:40.957Z,20.10
2023-05-12T01:38:08.090Z,20.09
2023-05-12T01:40:38.727Z,20.12
2023-05-12T01:43:06.247Z,20.02
2023-05-12T01:45:33.735Z,20.00
2023-05-12T01:48:01.278Z,19.97
2023-05-12T01:50:28.606Z,19.86
2023-05-12T01:52:56.269Z,19.88
2023-05-12T01:55:23.411Z,19.92
2023-05-12T01:57:54.387Z,19.85
2023-05-12T02:03:23.146Z,19.87
2023-05-12T02:05:51.006Z,19.85
2023-05-12T02:08:18.211Z,19.73
2023-05-12T02:10:45.391Z,19.83
2023-05-12T02:13:12.612Z,19.73
2023-05-12T02:15:40.463Z,19.62
2023-05-12T02:18:08.565Z,19.72
2023-05-12T02:20:36.420Z,19.44
2023-05-12T02:23:03.843Z,19.46
2023-05-12T02:25:33.166Z,19.54
2023-05-12T02:28:00.317Z,19.67
2023-05-12T02:30:27.880Z,19.60
2023-05-12T02:32:55.414Z,19.73
2023-05-12T02:35:22.968Z,19.71
2023-05-12T02:37:50.256Z,19.68
2023-05-12T02:40:17.514Z,19.56
2023-05-12T02:42:45.795Z,19.69
2023-05-12T02:45:13.346Z,19.75
2023-05-12T02:47:41.391Z,19.73
2023-05-12T02:50:09.775Z,19.75
2023-05-12T02:52:36.915Z,19.74
2023-05-12T02:55:04.703Z,19.78
2023-05-12T02:57:34.270Z,19.70
2023-05-12T03:00:05.022Z,19.62
2023-05-12T03:02:36.426Z,19.81
2023-05-12T03:05:04.303Z,19.74
2023-05-12T03:07:31.611Z,19.73
2023-05-12T03:09:59.306Z,19.87
2023-05-12T03:12:26.415Z,19.88
2023-05-12T03:14:53.496Z,19.87
2023-05-12T03:17:20.637Z,19.92
2023-05-12T03:19:49.311Z,19.95
2023-05-12T03:22:18.175Z,19.89
2023-05-12T03:24:45.484Z,19.88
2023-05-12T03:27:12.713Z,19.97
2023-05-12T03:29:39.784Z,20.00
2023-05-12T03:32:10.709Z,20.05
2023-05-12T03:34:38.374Z,20.10
2023-05-12T03:37:05.579Z,20.07
2023-05-12T03:39:32.840Z,20.07
2023-05-12T03:41:59.988Z,19.96
2023-05-12T03:44:27.234Z,20.00
2023-05-12T03:46:54.316Z,20.00
2023-05-12T03:49:21.415Z,19.99
2023-05-12T03:51:48.432Z,19.94
2023-05-12T03:54:15.683Z,19.82
2023-05-12T03:56:42.792Z,19.83
2023-05-12T03:59:12.138Z,19.89
2023-05-12T04:01:39.840Z,19.88
2023-05-12T04:04:07.059Z,19.90
2023-05-12T04:06:34.584Z,19.90
2023-05-12T04:09:01.836Z,19.85
2023-05-12T04:11:29.271Z,19.87
2023-05-12T04:13:57.050Z,19.86
2023-05-12T04:16:24.260Z,19.86
2023-05-12T04:18:52.050Z,19.83
2023-05-12T04:21:19.066Z,19.76
2023-05-12T04:23:46.564Z,19.80
2023-05-12T04:26:13.755Z,19.81
2023-05-12T04:28:40.983Z,19.79
2023-05-12T04:31:08.824Z,19.75
2023-05-12T04:33:37.443Z,19.69
2023-05-12T04:36:05.930Z,19.56
2023-05-12T04:38:33.034Z,19.51
2023-05-12T04:41:01.049Z,19.42
2023-05-12T04:46:00.152Z,19.24
2023-05-12T04:48:29.369Z,19.29
2023-05-12T04:51:00.240Z,19.31
2023-05-12T04:53:28.237Z,19.26
2023-05-12T04:55:56.831Z,19.37
2023-05-12T04:58:26.133Z,19.39
2023-05-12T05:00:54.025Z,19.24
2023-05-12T05:03:21.759Z,19.26
2023-05-12T05:05:49.273Z,19.20
2023-05-12T05:08:17.041Z,19.18
2023-05-12T05:10:44.450Z,19.23
2023-05-12T05:13:11.531Z,19.20
2023-05-12T05:15:38.870Z,19.21
2023-05-12T05:18:06.234Z,19.15
2023-05-12T05:20:34.944Z,19.27
2023-05-12T05:23:02.405Z,19.36
2023-05-12T05:25:29.655Z,19.34
2023-05-12T05:27:56.950Z,19.31
2023-05-12T05:30:31.293Z,19.41
2023-05-12T05:32:58.425Z,19.30
2023-05-12T05:35:25.547Z,19.41
2023-05-12T05:37:54.735Z,19.21
2023-05-12T05:40:23.414Z,19.40
2023-05-12T05:42:51.399Z,19.47
2023-05-12T05:45:18.811Z,19.52
2023-05-12T05:47:52.595Z,19.62
2023-05-12T05:50:21.708Z,19.66
2023-05-12T05:52:49.980Z,19.62
2023-05-12T05:55:17.268Z,19.66
2023-05-12T05:57:44.777Z,19.68
2023-05-12T06:00:14.426Z,19.70
2023-05-12T06:02:45.082Z,19.71
2023-05-12T06:05:17.462Z,19.73
2023-05-12T06:07:48.291Z,19.72
2023-05-12T06:10:19.688Z,19.75
2023-05-12T06:12:47.529Z,19.77
2023-05-12T06:15:15.115Z,19.84
2023-05-12T06:17:42.620Z,19.89
2023-05-12T06:20:10.312Z,19.96
2023-05-12T06:22:37.449Z,19.92
2023-05-12T06:25:04.966Z,19.94
2023-05-12T06:27:32.064Z,19.89
2023-05-12T06:29:59.261Z,20.00
2023-05-12T06:32:26.617Z,19.86
2023-05-12T06:34:53.961Z,19.98
2023-05-12T06:37:21.181Z,20.07
2023-05-12T06:39:48.263Z,19.91
2023-05-12T06:42:16.203Z,19.87
2023-05-12T06:44:44.394Z,19.96
2023-05-12T06:47:14.480Z,19.97
2023-05-12T06:49:41.639Z,20.06
2023-05-12T06:52:09.080Z,20.05
2023-05-12T06:54:36.311Z,20.08
2023-05-12T06:57:03.454Z,20.21
2023-05-12T06:59:31.131Z,20.15
2023-05-12T07:01:58.532Z,20.25
2023-05-12T07:04:27.236Z,20.24
2023-05-12T07:06:54.404Z,20.37
2023-05-12T07:09:24.234Z,20.38
2023-05-12T07:12:05.035Z,20.27
2023-05-12T07:14:32.444Z,20.33
2023-05-12T07:16:59.649Z,20.44
2023-05-12T07:19:27.313Z,20.55
2023-05-12T07:21:59.132Z,20.63
2023-05-12T07:24:27.997Z,20.73
2023-05-12T07:26:55.146Z,20.83
2023-05-12T07:29:22.769Z,20.92
2023-05-12T07:31:50.244Z,20.94
2023-05-12T07:34:17.407Z,20.96
2023-05-12T07:36:44.718Z,21.04
2023-05-12T07:39:13.127Z,21.01
2023-05-12T07:41:40.248Z,20.97
2023-05-12T07:44:07.653Z,20.94
2023-05-12T07:46:34.953Z,20.99
2023-05-12T07:49:02.705Z,21.03
2023-05-12T07:51:29.904Z,21.04
2023-05-12T07:53:58.272Z,21.22
2023-05-12T07:56:25.514Z,21.24
2023-05-12T07:58:52.716Z,21.18
2023-05-12T08:01:20.040Z,21.26
2023-05-12T08:03:47.356Z,21.25
2023-05-12T08:06:14.809Z,21.28
2023-05-12T08:08:41.932Z,21.25
2023-05-12T08:11:09.124Z,21.28
2023-05-12T08:13:39.561Z,21.10
2023-05-12T08:16:06.883Z,20.93
2023-05-12T08:18:34.400Z,20.95
2023-05-12T08:21:01.621Z,21.37
2023-05-12T08:23:28.972Z,21.66
2023-05-12T08:25:56.085Z,21.57
2023-05-12T08:28:23.265Z,22.22
2023-05-12T08:30:50.910Z,22.56
2023-05-12T08:33:18.096Z,22.82
2023-05-12T08:35:45.405Z,23.02
2023-05-12T08:38:12.722Z,23.26
2023-05-12T08:40:58.421Z,23.40
2023-05-12T08:43:31.463Z,24.07
2023-05-12T08:45:59.533Z,23.73
2023-05-12T08:48:28.289Z,23.98
2023-05-12T08:50:57.238Z,23.75
2023-05-12T08:53:26.178Z,23.48
2023-05-12T08:57:10.035Z,22.75
2023-05-12T08:58:43.283Z,23.41
2023-05-12T09:01:14.411Z,23.64
2023-05-12T09:03:42.242Z,23.97
2023-05-12T09:06:12.687Z,23.98
2023-05-12T09:08:41.227Z,24.01
2023-05-12T09:11:13.411Z,23.72
2023-05-12T09:14:00.562Z,23.89
2023-05-12T09:16:31.770Z,24.00
2023-05-12T09:19:00.520Z,23.70
2023-05-12T09:21:28.783Z,23.40
2023-05-12T09:24:07.233Z,23.71
2023-05-12T09:26:51.591Z,23.65
2023-05-12T09:29:30.889Z,23.66
2023-05-12T09:32:02.521Z,23.50
2023-05-12T09:34:33.307Z,23.43
2023-05-12T09:37:02.569Z,23.39
2023-05-12T09:39:29.897Z,22.56
2023-05-12T09:41:57.587Z,22.44
2023-05-12T09:44:25.939Z,22.69
2023-05-12T09:46:53.273Z,22.56
2023-05-12T09:49:26.960Z,22.32
2023-05-12T09:51:57.006Z,22.00
2023-05-12T09:54:31.542Z,21.77
2023-05-12T09:57:05.060Z,22.09
2023-05-12T09:59:39.326Z,22.04
2023-05-12T10:02:09.881Z,22.05
2023-05-12T10:05:01.312Z,21.75
2023-05-12T10:07:29.869Z,22.22
2023-05-12T10:10:01.559Z,22.09
2023-05-12T10:12:29.091Z,22.30
2023-05-12T10:14:57.142Z,21.96
2023-05-12T10:17:26.970Z,22.28
2023-05-12T10:19:56.037Z,22.52
2023-05-12T10:22:23.643Z,22.49
2023-05-12T10:24:52.448Z,22.08
2023-05-12T10:27:22.362Z,22.05
2023-05-12T10:29:51.521Z,22.41
2023-05-12T10:32:20.909Z,22.36
2023-05-12T10:34:48.386Z,22.18
2023-05-12T10:37:15.606Z,21.72
2023-05-12T10:39:51.745Z,21.57
2023-05-12T10:42:26.132Z,21.44
2023-05-12T10:44:58.433Z,21.83
2023-05-12T10:47:30.932Z,21.44
2023-05-12T10:50:01.548Z,21.79
2023-05-12T10:52:29.466Z,21.81
2023-05-12T10:55:04.324Z,21.98
2023-05-12T10:57:33.604Z,21.87
2023-05-12T11:00:05.052Z,21.84
2023-05-12T11:02:35.906Z,21.99
2023-05-12T11:05:11.098Z,22.10
2023-05-12T11:07:39.818Z,22.12
2023-05-12T11:10:08.147Z,21.36
2023-05-12T11:12:36.694Z,22.25
2023-05-12T11:15:05.782Z,22.04
2023-05-12T11:17:33.445Z,21.87
2023-05-12T11:20:03.411Z,21.96
2023-05-12T11:22:30.636Z,21.64
2023-05-12T11:24:57.921Z,21.40
2023-05-12T11:27:25.254Z,21.62
2023-05-12T11:30:01.069Z,22.32
2023-05-12T11:32:29.853Z,22.30
2023-05-12T11:35:12.052Z,21.59
2023-05-12T11:37:41.183Z,21.95
2023-05-12T11:40:23.214Z,21.45
2023-05-12T11:42:53.161Z,22.13
2023-05-12T11:45:27.149Z,22.48
2023-05-12T11:48:07.359Z,22.07
2023-05-12T11:50:37.277Z,21.94
2023-05-12T11:53:07.377Z,22.38
2023-05-12T11:55:34.944Z,22.49
2023-05-12T11:58:03.887Z,22.30
2023-05-12T12:00:35.827Z,21.35
2023-05-12T12:03:12.919Z,20.38
2023-05-12T12:05:42.402Z,20.68
2023-05-12T12:08:15.740Z,20.63
2023-05-12T12:10:47.022Z,20.75
2023-05-12T12:13:21.314Z,20.67
2023-05-12T12:15:49.453Z,20.70
2023-05-12T12:18:16.853Z,20.99
2023-05-12T12:20:44.346Z,20.89
2023-05-12T12:23:11.450Z,20.70
2023-05-12T12:25:38.813Z,20.80
2023-05-12T12:28:06.153Z,20.59
2023-05-12T12:30:36.886Z,20.43
2023-05-12T12:33:04.217Z,20.31
2023-05-12T12:35:31.506Z,20.50
2023-05-12T12:38:02.023Z,20.14
2023-05-12T12:40:29.478Z,20.52
2023-05-12T12:42:56.723Z,20.62
2023-05-12T12:45:24.137Z,20.77
2023-05-12T12:47:55.613Z,20.53
2023-05-12T12:50:24.471Z,20.68
2023-05-12T12:52:53.108Z,20.33
2023-05-12T12:55:20.930Z,19.99
2023-05-12T12:57:48.660Z,20.26
2023-05-12T13:00:16.310Z,20.21
2023-05-12T13:02:44.988Z,20.63
2023-05-12T13:05:15.338Z,20.11
2023-05-12T13:07:42.630Z,20.38
2023-05-12T13:10:10.565Z,19.85
2023-05-12T13:12:40.551Z,19.72
2023-05-12T13:15:12.633Z,19.83
2023-05-12T13:17:43.621Z,20.03
2023-05-12T13:20:11.563Z,20.22
2023-05-12T13:22:41.119Z,19.87
2023-05-12T13:25:21.658Z,20.29
2023-05-12T13:27:52.655Z,20.10
2023-05-12T13:30:20.851Z,19.99
2023-05-12T13:32:48.666Z,20.28
2023-05-12T13:35:16.509Z,20.36
2023-05-12T13:37:43.914Z,20.52
2023-05-12T13:40:14.573Z,20.51
2023-05-12T13:42:45.346Z,20.57
2023-05-12T13:45:14.898Z,20.59
2023-05-12T13:47:42.655Z,20.36
2023-05-12T13:50:14.192Z,20.38
2023-05-12T13:52:44.923Z,20.49
2023-05-12T13:55:21.007Z,20.45
2023-05-12T13:57:52.901Z,20.76
2023-05-12T14:00:23.591Z,20.67
2023-05-12T14:02:50.776Z,20.65
2023-05-12T14:05:21.196Z,20.79
2023-05-12T14:07:49.194Z,20.75
2023-05-12T14:10:19.530Z,20.86
2023-05-12T14:12:54.617Z,20.81
2023-05-12T14:15:32.986Z,20.67
2023-05-12T14:18:04.029Z,20.90
2023-05-12T14:20:31.612Z,20.92
2023-05-12T14:22:58.722Z,20.77
2023-05-12T14:25:25.989Z,20.96
2023-05-12T14:27:53.480Z,20.88
2023-05-12T14:30:21.982Z,21.14
2023-05-12T14:32:50.091Z,21.05
2023-05-12T14:35:29.160Z,20.73
2023-05-12T14:37:56.985Z,20.83
2023-05-12T14:40:24.581Z,20.50
2023-05-12T14:42:52.646Z,20.84
2023-05-12T14:45:22.334Z,20.94
2023-05-12T14:47:50.515Z,21.00
2023-05-12T14:50:21.722Z,20.94
2023-05-12T14:52:49.444Z,20.53
2023-05-12T14:55:17.668Z,20.40
2023-05-12T14:57:45.720Z,19.66
2023-05-12T15:00:15.344Z,19.57
2023-05-12T15:02:44.425Z,18.80
2023-05-12T15:05:14.128Z,18.51
2023-05-12T15:07:41.663Z,18.02
2023-05-12T15:10:09.520Z,17.63
2023-05-12T15:12:36.865Z,17.67
2023-05-12T15:15:05.591Z,17.56
2023-05-12T15:17:33.167Z,17.58
2023-05-12T15:20:01.314Z,17.59
2023-05-12T15:22:31.603Z,17.66
2023-05-12T15:24:59.742Z,17.71
2023-05-12T15:27:27.487Z,17.82
2023-05-12T15:29:57.516Z,17.90
2023-05-12T15:32:25.008Z,17.93
2023-05-12T15:34:52.901Z,18.00
2023-05-12T15:37:19.934Z,17.97
2023-05-12T15:39:47.640Z,17.97
2023-05-12T15:42:22.239Z,17.95
2023-05-12T15:44:56.723Z,17.77
2023-05-12T15:47:26.305Z,17.94
2023-05-12T15:49:57.217Z,17.91
2023-05-12T15:52:25.028Z,18.07
2023-05-12T15:54:54.682Z,18.09
2023-05-12T15:57:22.190Z,18.10
2023-05-12T15:59:50.190Z,18.11
2023-05-12T16:02:18.797Z,18.16
2023-05-12T16:04:46.049Z,18.12
2023-05-12T16:07:13.078Z,18.12
2023-05-12T16:09:40.404Z,18.19
2023-05-12T16:12:09.307Z,18.15
2023-05-12T16:14:36.461Z,18.22
2023-05-12T16:17:04.123Z,18.26
2023-05-12T16:19:31.639Z,18.40
2023-05-12T16:22:02.275Z,18.44
2023-05-12T16:24:31.811Z,18.37
2023-05-12T16:27:01.892Z,18.46
2023-05-12T16:29:31.922Z,18.43
2023-05-12T16:31:59.512Z,18.41
2023-05-12T16:34:29.607Z,18.48
2023-05-12T16:36:56.778Z,18.53
2023-05-12T16:39:23.936Z,18.53
2023-05-12T16:41:51.462Z,18.51
2023-05-12T16:44:18.590Z,18.36
2023-05-12T16:46:45.814Z,18.52
2023-05-12T16:49:13.173Z,18.61
2023-05-12T16:51:40.658Z,18.71
2023-05-12T16:54:07.954Z,18.79
2023-05-12T16:56:35.347Z,18.52
2023-05-12T16:59:02.873Z,18.62
2023-05-12T17:01:31.858Z,18.72
2023-05-12T17:04:01.500Z,18.78
2023-05-12T17:06:28.755Z,18.76
2023-05-12T17:08:55.953Z,18.83
2023-05-12T17:11:24.984Z,18.93
2023-05-12T17:13:56.162Z,18.94
2023-05-12T17:16:29.114Z,18.82
2023-05-12T17:21:40.752Z,18.99
2023-05-12T17:24:14.466Z,19.06
2023-05-12T17:26:45.311Z,19.05
2023-05-12T17:29:15.616Z,19.05
2023-05-12T17:31:43.370Z,19.06
2023-05-12T17:34:13.718Z,18.98
2023-05-12T17:36:41.280Z,19.06
2023-05-12T17:39:19.793Z,19.14
2023-05-12T17:41:47.465Z,19.12
2023-05-12T17:44:14.879Z,19.08
2023-05-12T17:46:42.173Z,19.00
2023-05-12T17:49:14.402Z,18.98
2023-05-12T17:51:44.908Z,18.67
2023-05-12T17:54:15.627Z,18.53
2023-05-12T17:56:44.807Z,18.55
2023-05-12T17:59:12.681Z,18.46
2023-05-12T18:01:39.988Z,18.46
2023-05-12T18:04:10.344Z,18.35
2023-05-12T18:06:41.382Z,18.15
2023-05-12T18:09:09.623Z,18.34
2023-05-12T18:11:37.322Z,18.13
2023-05-12T18:14:06.278Z,18.19
2023-05-12T18:16:35.887Z,18.19
2023-05-12T18:19:04.148Z,18.17
2023-05-12T18:21:31.376Z,17.92
2023-05-12T18:24:01.908Z,18.05
2023-05-12T18:26:30.813Z,18.17
2023-05-12T18:28:58.420Z,18.16
2023-05-12T18:31:26.955Z,17.98
2023-05-12T18:33:54.118Z,18.03
2023-05-12T18:36:22.038Z,18.05
2023-05-12T18:38:49.254Z,18.00
2023-05-12T18:41:17.133Z,17.97
2023-05-12T18:43:45.402Z,18.09
2023-05-12T18:46:12.893Z,18.10
2023-05-12T18:48:51.247Z,18.13
2023-05-12T18:51:20.742Z,18.19
2023-05-12T18:53:48.417Z,18.14
2023-05-12T18:56:16.030Z,18.12
2023-05-12T18:58:43.082Z,18.12
2023-05-12T19:01:10.703Z,18.10
2023-05-12T19:03:38.201Z,17.98
2023-05-12T19:06:07.376Z,18.09
2023-05-12T19:08:34.490Z,18.11
2023-05-12T19:11:01.633Z,18.12
2023-05-12T19:13:28.748Z,18.18
2023-05-12T19:15:55.795Z,18.22
2023-05-12T19:18:23.679Z,18.23
2023-05-12T19:20:52.596Z,18.17
2023-05-12T19:23:24.615Z,18.23
2023-05-12T19:25:52.064Z,18.22
2023-05-12T19:28:19.146Z,18.24
2023-05-12T19:30:46.399Z,18.25
2023-05-12T19:33:15.295Z,18.34
2023-05-12T19:35:43.839Z,18.31
2023-05-12T19:38:13.730Z,18.33
2023-05-12T19:40:40.846Z,18.34
2023-05-12T19:43:10.775Z,18.34
2023-05-12T19:45:38.127Z,18.35
2023-05-12T19:48:05.782Z,18.36
2023-05-12T19:50:34.463Z,18.34
2023-05-12T19:53:01.905Z,18.38
2023-05-12T19:55:33.081Z,18.35
2023-05-12T19:58:02.272Z,18.34
2023-05-12T20:00:29.736Z,18.27
2023-05-12T20:02:59.988Z,18.25
2023-05-12T20:05:31.417Z,18.24
2023-05-12T20:08:01.497Z,18.27
2023-05-12T20:10:30.121Z,18.17
2023-05-12T20:13:03.942Z,18.22
2023-05-12T20:15:32.490Z,18.19
2023-05-12T20:18:01.425Z,18.23
2023-05-12T20:20:50.061Z,18.18
2023-05-12T20:23:17.838Z,18.26
2023-05-12T20:25:46.504Z,18.26
2023-05-12T20:28:14.455Z,18.25
2023-05-12T20:31:03.739Z,18.21
2023-05-12T20:33:41.164Z,18.19
2023-05-12T20:36:11.222Z,18.27
2023-05-12T20:38:56.620Z,18.31
2023-05-12T20:41:28.581Z,18.28
2023-05-12T20:43:57.176Z,18.32
2023-05-12T20:46:31.823Z,18.30
2023-05-12T20:49:09.552Z,18.31
2023-05-12T20:51:40.765Z,18.34
2023-05-12T20:54:15.099Z,18.29
2023-05-12T20:56:45.736Z,18.31
2023-05-12T20:59:14.305Z,18.28
2023-05-12T21:01:51.374Z,18.24
2023-05-12T21:04:25.999Z,18.27
2023-05-12T21:07:15.187Z,18.24
2023-05-12T21:10:11.166Z,18.22
2023-05-12T21:12:51.202Z,18.17
2023-05-12T21:15:19.755Z,18.18
2023-05-12T21:17:47.380Z,18.14
2023-05-12T21:20:20.149Z,18.13
2023-05-12T21:22:59.133Z,18.10
2023-05-12T21:25:37.502Z,18.16
2023-05-12T21:28:08.020Z,18.14
2023-05-12T21:30:44.889Z,18.16
2023-05-12T21:33:18.198Z,18.09
2023-05-12T21:37:15.967Z,18.06
2023-05-12T21:39:44.089Z,18.02
2023-05-12T21:42:11.386Z,17.99
2023-05-12T21:44:41.341Z,17.99
2023-05-12T21:47:09.737Z,17.99
2023-05-12T21:49:37.101Z,17.98
2023-05-12T21:52:04.592Z,18.00
2023-05-12T21:54:34.220Z,18.00
2023-05-12T21:57:01.705Z,17.97
2023-05-12T21:59:29.636Z,17.97
2023-05-12T22:01:57.570Z,17.98
2023-05-12T22:04:24.865Z,17.98
2023-05-12T22:06:58.209Z,17.95
2023-05-12T22:09:31.752Z,17.97
2023-05-12T22:11:59.070Z,17.96
2023-05-12T22:14:26.168Z,17.98
2023-05-12T22:16:53.422Z,17.98
2023-05-12T22:19:24.435Z,17.97
2023-05-12T22:24:49.297Z,17.94
2023-05-12T22:27:36.594Z,17.96
2023-05-12T22:30:24.171Z,17.97
2023-05-12T22:33:04.448Z,17.96
2023-05-12T22:35:35.072Z,17.96
2023-05-12T22:38:07.951Z,17.92
2023-05-12T22:40:39.974Z,17.99
2023-05-12T22:43:25.112Z,17.97
2023-05-12T22:46:11.401Z,17.94
2023-05-12T22:48:58.713Z,17.96
2023-05-12T22:51:29.629Z,17.98
2023-05-12T22:54:07.939Z,17.96
2023-05-12T22:56:45.766Z,18.00
2023-05-12T22:59:20.579Z,17.98
2023-05-12T23:02:37.896Z,17.99
2023-05-12T23:05:28.127Z,18.01
2023-05-12T23:08:13.288Z,18.01
2023-05-12T23:10:46.337Z,17.88
2023-05-12T23:14:36.378Z,17.94
2023-05-12T23:17:08.342Z,17.90
2023-05-12T23:19:37.321Z,17.82
2023-05-12T23:22:08.165Z,17.77
2023-05-12T23:24:39.372Z,17.75
2023-05-12T23:27:09.544Z,17.67
2023-05-12T23:29:43.247Z,17.68
2023-05-12T23:32:14.567Z,17.67
2023-05-12T23:34:45.453Z,17.67
2023-05-12T23:37:13.209Z,17.58
2023-05-12T23:39:57.223Z,17.63
2023-05-12T23:42:25.009Z,17.59
2023-05-12T23:44:55.898Z,17.50
2023-05-12T23:47:30.455Z,17.62
2023-05-12T23:50:05.812Z,17.56
2023-05-12T23:52:37.755Z,17.52
2023-05-12T23:55:07.992Z,17.57
2023-05-12T23:57:40.914Z,17.58
